KFNL/FNL METAR and TAF weather

Enter ICAO airport designator
Station Type Date Time Source
KFNL METAR 2022/01/26 12:56 UTC NOAA

KFNL 261256Z 17004KT 10SM CLR M17/M18 A3003 RMK AO2 SLP229 T11671183 FZRANO


Station Type Date Time Source
KFNL Decoded METAR 2022/01/26 12:56 UTC NOAA

Fort Collins/Loveland, Fort Collins-Loveland Municipal Airport, CO, United States (KFNL) 40-27N 105-01W
Jan 26, 2022 - 07:56 AM EST / 2022.01.26 1256 UTC
Wind: from the S (170 degrees) at 5 MPH (4 KT):0
Visibility: 10 mile(s):0
Sky conditions: clear
Temperature: 1.9 F (-16.7 C)
Windchill: -7 F (-22 C):2
Dew Point: -0.9 F (-18.3 C)
Relative Humidity: 87%
Pressure (altimeter): 30.03 in. Hg (1016 hPa)
ob: KFNL 261256Z 17004KT 10SM CLR M17/M18 A3003 RMK AO2 SLP229 T11671183 FZRANO
cycle: 13

Station Type Date Time Source
KFNL TAF UTC NOAA

Error!

Example: see airport list